Time;durP1;ratioP1;P1;durP2;ratioP2;P2;SDS_P1;SDS_P2;PMS_P1;PMS_P2;Temp;Humidity;BMP_temperature;BMP_pressure;BME280_temperature;BME280_humidity;BME280_pressure;Samples;Min_cycle;Max_cycle;Signal;HPM_P1;HPM_P2
2022/01/17 00:00:10;;;;;;;33.90;19.83;;;4.80;99.90;;;;;;5034082;28;20198;-75
2022/01/17 00:02:37;;;;;;;33.67;20.67;;;4.80;99.90;;;;;;5027053;28;20566;-74
2022/01/17 00:05:07;;;;;;;32.93;20.50;;;4.80;99.90;;;;;;5028057;28;20182;-75
2022/01/17 00:07:34;;;;;;;32.53;19.90;;;4.90;99.90;;;;;;5032528;28;20202;-75
2022/01/17 00:10:00;;;;;;;31.17;19.40;;;4.90;99.90;;;;;;5033738;28;20179;-74
2022/01/17 00:12:26;;;;;;;32.77;20.93;;;4.80;99.90;;;;;;5036839;28;20190;-74
2022/01/17 00:14:55;;;;;;;33.83;20.70;;;4.80;99.90;;;;;;5037091;28;20662;-74
2022/01/17 00:19:52;;;;;;;34.80;21.03;;;4.80;99.90;;;;;;5042999;28;20256;-75
2022/01/17 00:22:21;;;;;;;32.70;20.73;;;4.70;99.90;;;;;;5026109;28;20193;-75
2022/01/17 00:24:48;;;;;;;35.07;21.30;;;4.70;99.90;;;;;;5028203;28;20226;-74
2022/01/17 00:27:14;;;;;;;37.83;22.03;;;4.80;99.90;;;;;;5023473;28;20178;-74
2022/01/17 00:29:42;;;;;;;38.00;21.97;;;4.80;99.90;;;;;;5040588;28;20183;-74
2022/01/17 00:32:12;;;;;;;30.87;19.23;;;4.80;99.90;;;;;;5022351;28;20237;-74
2022/01/17 00:34:42;;;;;;;35.40;21.60;;;4.70;99.90;;;;;;5012187;28;20214;-75
2022/01/17 00:37:08;;;;;;;36.77;21.30;;;4.70;99.90;;;;;;5014544;28;20293;-74
2022/01/17 00:39:35;;;;;;;32.13;19.93;;;4.70;99.90;;;;;;5014736;28;20226;-74
2022/01/17 00:42:01;;;;;;;38.03;22.33;;;4.70;99.90;;;;;;5039094;28;20183;-74
2022/01/17 00:44:27;;;;;;;35.97;21.73;;;4.70;99.90;;;;;;5019311;28;20269;-74
2022/01/17 00:46:54;;;;;;;36.63;20.80;;;4.70;99.90;;;;;;5034802;28;20186;-75
2022/01/17 00:49:20;;;;;;;36.23;22.43;;;4.60;99.90;;;;;;5038087;28;20179;-74
2022/01/17 00:51:50;;;;;;;37.43;21.40;;;4.60;99.90;;;;;;5034080;28;20220;-74
2022/01/17 00:54:22;;;;;;;36.70;22.17;;;4.60;99.90;;;;;;5030192;28;20217;-74
2022/01/17 00:56:49;;;;;;;41.50;22.93;;;4.60;99.90;;;;;;5000588;28;20233;-75
2022/01/17 00:59:15;;;;;;;41.27;23.27;;;4.60;99.90;;;;;;5019549;28;20190;-74
2022/01/17 01:01:41;;;;;;;37.17;21.67;;;4.60;99.90;;;;;;5025154;28;20190;-74
2022/01/17 01:04:07;;;;;;;36.60;21.13;;;4.60;99.90;;;;;;4998717;28;20210;-74
2022/01/17 01:06:36;;;;;;;36.53;21.23;;;4.60;99.90;;;;;;5030328;28;20638;-74
2022/01/17 01:09:03;;;;;;;42.67;24.67;;;4.60;99.90;;;;;;5028852;28;20673;-74
2022/01/17 01:11:28;;;;;;;43.27;25.50;;;4.70;99.90;;;;;;5032949;28;20181;-74
2022/01/17 01:13:54;;;;;;;39.93;23.43;;;4.70;99.90;;;;;;5031384;28;20682;-74
2022/01/17 01:19:07;;;;;;;36.67;22.00;;;4.60;99.90;;;;;;5033915;28;20255;-74
2022/01/17 01:21:48;;;;;;;37.47;22.37;;;4.60;99.90;;;;;;5017292;28;20190;-74
2022/01/17 01:29:55;;;;;;;34.13;20.70;;;4.50;99.90;;;;;;5037720;28;20269;-74
2022/01/17 01:32:26;;;;;;;39.90;22.87;;;4.50;99.90;;;;;;5012667;28;20182;-74
2022/01/17 01:34:55;;;;;;;38.60;22.23;;;4.50;99.90;;;;;;5035454;28;20206;-74
2022/01/17 01:37:21;;;;;;;39.23;22.70;;;4.50;99.90;;;;;;5013113;28;20552;-74
2022/01/17 01:39:50;;;;;;;40.07;22.80;;;4.50;99.90;;;;;;5035684;28;20268;-74
2022/01/17 01:42:18;;;;;;;37.90;21.40;;;4.50;99.90;;;;;;5033244;28;20217;-74
2022/01/17 01:44:45;;;;;;;36.40;22.07;;;4.50;99.90;;;;;;5018508;28;20210;-74
2022/01/17 01:47:13;;;;;;;39.40;22.33;;;4.50;99.90;;;;;;5034091;28;20596;-75
2022/01/17 01:49:39;;;;;;;37.63;21.37;;;4.50;99.90;;;;;;5031606;28;20186;-75
2022/01/17 01:52:05;;;;;;;41.20;23.13;;;4.50;99.90;;;;;;5032064;28;20175;-75
2022/01/17 01:54:31;;;;;;;40.63;22.57;;;4.50;99.90;;;;;;5040143;28;20205;-74
2022/01/17 01:56:57;;;;;;;37.53;21.70;;;4.50;99.90;;;;;;5034162;28;20269;-76
2022/01/17 01:59:24;;;;;;;37.00;21.33;;;4.50;99.90;;;;;;5017953;28;20740;-76
2022/01/17 02:01:51;;;;;;;38.57;22.23;;;4.40;99.90;;;;;;5034603;28;20197;-75
2022/01/17 02:04:18;;;;;;;36.13;21.47;;;4.50;99.90;;;;;;5018201;28;20233;-75
2022/01/17 02:06:45;;;;;;;39.27;22.90;;;4.50;99.90;;;;;;5027158;28;20195;-77
2022/01/17 02:09:11;;;;;;;39.73;22.70;;;4.50;99.90;;;;;;5032820;28;20262;-75
2022/01/17 02:11:38;;;;;;;41.10;22.60;;;4.50;99.90;;;;;;5027760;28;20213;-75
2022/01/17 02:14:04;;;;;;;39.37;22.27;;;4.50;99.90;;;;;;5012960;28;20213;-74
2022/01/17 02:16:30;;;;;;;40.33;23.03;;;4.50;99.90;;;;;;5026635;28;20266;-75
2022/01/17 02:18:56;;;;;;;40.40;22.20;;;4.50;99.90;;;;;;5028605;28;20183;-76
2022/01/17 02:24:07;;;;;;;40.97;22.43;;;4.50;99.90;;;;;;5024265;28;20198;-75
2022/01/17 02:26:33;;;;;;;41.70;23.13;;;4.50;99.90;;;;;;5028995;28;20171;-74
2022/01/17 02:28:59;;;;;;;45.43;24.13;;;4.50;99.90;;;;;;5032216;28;20237;-76
2022/01/17 02:31:25;;;;;;;45.20;25.00;;;4.40;99.90;;;;;;5029056;28;20622;-74
2022/01/17 02:33:53;;;;;;;43.37;23.67;;;4.40;99.90;;;;;;5039222;28;20206;-75
2022/01/17 02:36:21;;;;;;;47.40;25.33;;;4.40;99.90;;;;;;5010511;28;20187;-74
2022/01/17 02:38:46;;;;;;;44.30;23.77;;;4.40;99.90;;;;;;5028972;28;20209;-74
2022/01/17 02:41:12;;;;;;;44.73;24.47;;;4.30;99.90;;;;;;5031262;28;20305;-75
2022/01/17 02:43:38;;;;;;;40.50;22.23;;;4.30;99.90;;;;;;5033703;28;20285;-74
2022/01/17 02:48:33;;;;;;;45.77;24.07;;;4.30;99.90;;;;;;5033761;28;20183;-74
2022/01/17 02:51:00;;;;;;;45.53;24.07;;;4.30;99.90;;;;;;5035582;28;20248;-74
2022/01/17 02:53:27;;;;;;;48.10;24.90;;;4.30;99.90;;;;;;5033565;28;20670;-76
2022/01/17 02:56:02;;;;;;;43.20;24.23;;;4.30;99.90;;;;;;5037496;28;20184;-75
2022/01/17 02:58:32;;;;;;;51.63;26.63;;;4.30;99.90;;;;;;5018448;28;20183;-77
2022/01/17 03:01:00;;;;;;;44.73;23.60;;;4.20;99.90;;;;;;5035662;28;20202;-74
2022/01/17 03:03:28;;;;;;;51.23;25.50;;;4.20;99.90;;;;;;5034242;28;20195;-75
2022/01/17 03:05:55;;;;;;;43.67;24.20;;;4.20;99.90;;;;;;5027236;28;20209;-74
2022/01/17 03:08:25;;;;;;;48.83;24.47;;;4.20;99.90;;;;;;5024477;28;20567;-75
2022/01/17 03:10:53;;;;;;;46.17;24.70;;;4.20;99.90;;;;;;5028497;28;20171;-76
2022/01/17 03:13:24;;;;;;;50.03;25.53;;;4.20;99.90;;;;;;5026909;28;20219;-75
2022/01/17 03:15:55;;;;;;;51.40;25.73;;;4.20;99.90;;;;;;5038605;28;20186;-76
2022/01/17 03:18:22;;;;;;;44.17;23.70;;;4.20;99.90;;;;;;5006504;28;20339;-76
2022/01/17 03:20:48;;;;;;;43.80;23.43;;;4.20;99.90;;;;;;5039759;28;20270;-76
2022/01/17 03:23:15;;;;;;;46.57;24.07;;;4.20;99.90;;;;;;5035278;28;20211;-76
2022/01/17 03:25:41;;;;;;;47.67;24.33;;;4.20;99.90;;;;;;5018091;28;20240;-75
2022/01/17 03:28:07;;;;;;;45.63;24.30;;;4.20;99.90;;;;;;5014249;28;20183;-76
2022/01/17 03:30:33;;;;;;;45.83;24.13;;;4.20;99.90;;;;;;5040988;28;20186;-77
2022/01/17 03:33:01;;;;;;;43.63;23.03;;;4.20;99.90;;;;;;5012788;28;20198;-77
2022/01/17 03:35:27;;;;;;;46.43;23.47;;;4.20;99.90;;;;;;5032849;28;20277;-75
2022/01/17 03:37:53;;;;;;;45.50;24.03;;;4.20;99.90;;;;;;5037070;28;20225;-74
2022/01/17 03:40:19;;;;;;;47.70;24.90;;;4.20;99.90;;;;;;5039459;28;20216;-73
2022/01/17 03:42:45;;;;;;;43.13;22.53;;;4.20;99.90;;;;;;5013349;28;20832;-75
2022/01/17 03:45:11;;;;;;;44.47;22.87;;;4.20;99.90;;;;;;5017831;28;20210;-75
2022/01/17 03:47:40;;;;;;;43.57;23.23;;;4.20;99.90;;;;;;5038845;28;20258;-75
2022/01/17 03:50:12;;;;;;;49.10;25.77;;;4.20;99.90;;;;;;5026309;28;20646;-75
2022/01/17 03:52:39;;;;;;;46.33;24.47;;;4.10;99.90;;;;;;5010012;28;20191;-74
2022/01/17 03:55:07;;;;;;;44.37;23.93;;;4.10;99.90;;;;;;5022319;28;20192;-76
2022/01/17 03:57:33;;;;;;;43.97;23.07;;;4.10;99.90;;;;;;5041404;28;20186;-75
2022/01/17 03:59:59;;;;;;;41.13;21.63;;;4.10;99.90;;;;;;5032875;28;20215;-76
2022/01/17 04:02:25;;;;;;;40.03;21.90;;;4.10;99.90;;;;;;5033856;28;20186;-76
2022/01/17 04:04:51;;;;;;;46.53;23.50;;;4.10;99.90;;;;;;5035933;28;20190;-77
2022/01/17 04:07:16;;;;;;;42.57;23.37;;;4.10;99.90;;;;;;5036123;28;20186;-75
2022/01/17 04:09:42;;;;;;;42.77;22.40;;;4.10;99.90;;;;;;5035406;28;20183;-77
2022/01/17 04:12:08;;;;;;;41.30;20.97;;;4.10;99.90;;;;;;5033011;28;20175;-76
2022/01/17 04:14:36;;;;;;;43.00;22.50;;;4.10;99.90;;;;;;5033892;28;20221;-76
2022/01/17 04:17:05;;;;;;;41.73;21.50;;;4.10;99.90;;;;;;5039785;28;20178;-75
2022/01/17 04:19:31;;;;;;;41.10;21.97;;;4.10;99.90;;;;;;5014724;28;20209;-76
2022/01/17 04:21:57;;;;;;;40.30;21.73;;;4.10;99.90;;;;;;5038005;28;20182;-77
2022/01/17 04:24:23;;;;;;;46.13;23.27;;;4.10;99.90;;;;;;5031724;28;20202;-76
2022/01/17 04:26:49;;;;;;;43.77;23.37;;;4.10;99.90;;;;;;5032243;28;20183;-76
2022/01/17 04:29:17;;;;;;;41.80;22.20;;;4.10;99.90;;;;;;5034622;28;20221;-75
2022/01/17 04:31:43;;;;;;;46.53;23.97;;;4.10;99.90;;;;;;5020071;28;20246;-77
2022/01/17 04:34:09;;;;;;;43.73;23.23;;;4.10;99.90;;;;;;5038267;28;20222;-77
2022/01/17 04:36:35;;;;;;;41.20;21.27;;;4.00;99.90;;;;;;5031702;28;20182;-76
2022/01/17 04:39:00;;;;;;;43.77;22.60;;;4.00;99.90;;;;;;5036182;28;20204;-76
2022/01/17 04:41:36;;;;;;;42.50;22.80;;;4.10;99.90;;;;;;5002214;28;20638;-76
2022/01/17 04:45:07;;;;;;;43.27;21.47;;;4.10;99.90;;;;;;5018458;28;20201;-75
2022/01/17 04:46:49;;;;;;;39.73;21.63;;;4.10;99.90;;;;;;5034937;28;20325;-75
2022/01/17 04:49:15;;;;;;;38.47;20.90;;;4.10;99.90;;;;;;5031832;28;20195;-74
2022/01/17 04:51:42;;;;;;;39.37;22.53;;;4.10;99.90;;;;;;5035752;28;20175;-77
2022/01/17 04:56:53;;;;;;;44.73;23.67;;;4.10;99.90;;;;;;5031220;28;20209;-76
2022/01/17 04:59:20;;;;;;;38.73;21.83;;;4.10;99.90;;;;;;5036547;28;20186;-77
2022/01/17 05:01:46;;;;;;;38.60;20.20;;;4.10;99.90;;;;;;5037294;28;20185;-76
2022/01/17 05:04:12;;;;;;;41.90;21.93;;;4.00;99.90;;;;;;5036779;28;20198;-77
2022/01/17 05:06:38;;;;;;;42.03;21.93;;;4.00;99.90;;;;;;5015019;28;20240;-76
2022/01/17 05:09:04;;;;;;;39.00;21.03;;;4.00;99.90;;;;;;5037451;28;20250;-76
2022/01/17 05:11:31;;;;;;;37.30;21.17;;;4.00;99.90;;;;;;5024963;28;20194;-77
2022/01/17 05:13:57;;;;;;;41.73;22.43;;;4.10;99.90;;;;;;5026858;28;20281;-77
2022/01/17 05:16:32;;;;;;;36.20;20.43;;;4.00;99.90;;;;;;5027581;28;20289;-76
2022/01/17 05:21:46;;;;;;;41.57;20.60;;;4.10;99.90;;;;;;5025739;28;20194;-76
2022/01/17 05:24:12;;;;;;;42.40;20.97;;;4.10;99.90;;;;;;5033406;28;20252;-76
2022/01/17 05:26:38;;;;;;;38.33;20.03;;;4.10;99.90;;;;;;5031182;28;20190;-76
2022/01/17 05:29:04;;;;;;;36.80;20.77;;;4.10;99.90;;;;;;5003961;28;20183;-77
2022/01/17 05:31:30;;;;;;;37.87;19.83;;;4.10;99.90;;;;;;5031681;28;20264;-75
2022/01/17 05:33:55;;;;;;;38.67;20.80;;;4.10;99.90;;;;;;4999354;28;20198;-76
2022/01/17 05:36:21;;;;;;;35.07;19.77;;;4.10;99.90;;;;;;5036921;28;20275;-76
2022/01/17 05:38:47;;;;;;;37.63;20.00;;;4.10;99.90;;;;;;5047852;28;20280;-77
2022/01/17 05:41:13;;;;;;;37.93;20.10;;;4.10;99.90;;;;;;5034063;28;20210;-76
2022/01/17 05:43:39;;;;;;;38.57;19.93;;;4.10;99.90;;;;;;5035968;28;20203;-77
2022/01/17 05:46:04;;;;;;;38.33;20.17;;;4.10;99.90;;;;;;5030058;28;20282;-76
2022/01/17 05:48:31;;;;;;;34.73;19.57;;;4.10;99.90;;;;;;5028245;28;20190;-76
2022/01/17 05:50:56;;;;;;;35.40;18.80;;;4.20;99.90;;;;;;5011725;28;20190;-77
2022/01/17 05:53:22;;;;;;;37.27;20.37;;;4.20;99.90;;;;;;5032388;28;20206;-77
2022/01/17 05:55:48;;;;;;;34.43;18.70;;;4.20;99.90;;;;;;5011619;28;20198;-77
2022/01/17 05:58:14;;;;;;;35.47;19.43;;;4.10;99.90;;;;;;5014388;28;20214;-77
2022/01/17 06:00:39;;;;;;;35.57;20.57;;;4.10;99.90;;;;;;5027445;28;20202;-77
2022/01/17 06:03:06;;;;;;;36.23;19.90;;;4.10;99.90;;;;;;5010476;28;20244;-77
2022/01/17 06:05:31;;;;;;;35.37;19.57;;;4.10;99.90;;;;;;5020299;28;20202;-77
2022/01/17 06:07:57;;;;;;;39.10;19.87;;;4.20;99.90;;;;;;5025072;28;20217;-77
2022/01/17 06:10:23;;;;;;;35.57;18.73;;;4.20;99.90;;;;;;5026096;28;20302;-74
2022/01/17 06:12:49;;;;;;;37.60;19.70;;;4.20;99.90;;;;;;5022693;28;20796;-75
2022/01/17 06:15:18;;;;;;;35.77;19.57;;;4.20;99.90;;;;;;5021590;28;20293;-75
2022/01/17 06:17:45;;;;;;;38.27;20.33;;;4.20;99.90;;;;;;5030799;28;20233;-75
2022/01/17 06:20:11;;;;;;;34.13;19.00;;;4.20;99.90;;;;;;5031242;28;20686;-75
2022/01/17 06:22:37;;;;;;;37.93;19.83;;;4.20;99.90;;;;;;4993485;28;20856;-75
2022/01/17 06:25:04;;;;;;;37.80;20.23;;;4.20;99.90;;;;;;5030045;28;20234;-75
2022/01/17 06:27:30;;;;;;;36.37;20.30;;;4.10;99.90;;;;;;5035152;28;20194;-75
2022/01/17 06:29:57;;;;;;;37.93;20.13;;;4.10;99.90;;;;;;5034064;28;20193;-75
2022/01/17 06:32:23;;;;;;;37.27;20.20;;;4.10;99.90;;;;;;5028125;28;20191;-75
2022/01/17 06:34:49;;;;;;;36.83;19.30;;;4.10;99.90;;;;;;5037274;28;20240;-75
2022/01/17 06:37:15;;;;;;;40.07;21.40;;;4.10;99.90;;;;;;5034356;28;20209;-76
2022/01/17 06:39:42;;;;;;;37.20;19.70;;;4.10;99.90;;;;;;5040440;28;20659;-75
2022/01/17 06:42:08;;;;;;;41.60;21.47;;;4.10;99.90;;;;;;5030675;28;20265;-77
2022/01/17 06:44:34;;;;;;;38.80;20.87;;;4.10;99.90;;;;;;5029686;28;20245;-75
2022/01/17 06:47:00;;;;;;;37.77;20.60;;;4.10;99.90;;;;;;5016903;28;20190;-75
2022/01/17 06:49:26;;;;;;;36.43;20.07;;;4.10;99.90;;;;;;5003471;28;20421;-77
2022/01/17 06:51:52;;;;;;;36.93;20.30;;;4.10;99.90;;;;;;5017296;28;20655;-76
2022/01/17 06:54:18;;;;;;;38.30;20.97;;;4.00;99.90;;;;;;5044018;28;20201;-76
2022/01/17 06:56:44;;;;;;;40.37;19.80;;;4.10;99.90;;;;;;5029867;28;20221;-76
2022/01/17 06:59:14;;;;;;;33.80;18.73;;;4.10;99.90;;;;;;5032409;28;20171;-76
2022/01/17 07:01:40;;;;;;;39.13;21.00;;;4.10;99.90;;;;;;5026483;28;20720;-77
2022/01/17 07:04:07;;;;;;;36.70;19.93;;;4.10;99.90;;;;;;5025162;28;20198;-77
2022/01/17 07:06:34;;;;;;;37.37;20.47;;;4.10;99.90;;;;;;5025654;28;20232;-77
2022/01/17 07:09:02;;;;;;;34.70;19.13;;;4.10;99.90;;;;;;5027486;28;20178;-77
2022/01/17 07:11:28;;;;;;;35.73;18.93;;;4.10;99.90;;;;;;5026417;28;20193;-77
2022/01/17 07:13:54;;;;;;;37.47;19.53;;;4.20;99.90;;;;;;5028289;28;20221;-77
2022/01/17 07:16:19;;;;;;;37.13;20.20;;;4.10;99.90;;;;;;5026528;28;20917;-77
2022/01/17 07:18:45;;;;;;;35.27;18.17;;;4.10;99.90;;;;;;5027452;28;20201;-77
2022/01/17 07:21:11;;;;;;;35.37;18.97;;;4.10;99.90;;;;;;5026568;28;20639;-77
2022/01/17 07:23:37;;;;;;;36.73;18.20;;;4.10;99.90;;;;;;5027763;28;20290;-77
2022/01/17 07:26:03;;;;;;;36.47;19.93;;;4.10;99.90;;;;;;5005621;28;20262;-77
2022/01/17 07:28:29;;;;;;;34.53;18.80;;;4.10;99.90;;;;;;5027947;28;20183;-77
2022/01/17 07:30:55;;;;;;;38.40;19.83;;;4.10;99.90;;;;;;5025653;28;20194;-77
2022/01/17 07:33:24;;;;;;;35.30;18.70;;;4.10;99.90;;;;;;5018337;28;20321;-76
2022/01/17 07:35:49;;;;;;;37.90;19.37;;;4.10;99.90;;;;;;5026410;28;20182;-78
2022/01/17 07:38:16;;;;;;;35.57;18.27;;;4.10;99.90;;;;;;5005297;28;20193;-77
2022/01/17 07:40:43;;;;;;;35.77;19.60;;;4.10;99.90;;;;;;5024695;28;20303;-75
2022/01/17 07:43:11;;;;;;;32.60;18.00;;;4.10;99.90;;;;;;5024019;28;20198;-78
2022/01/17 07:45:44;;;;;;;34.67;18.83;;;4.10;99.90;;;;;;5010725;28;20198;-76
2022/01/17 07:48:33;;;;;;;34.27;18.20;;;4.10;99.90;;;;;;5029411;28;20175;-78
2022/01/17 07:50:55;;;;;;;36.67;18.70;;;4.10;99.90;;;;;;5029621;28;20194;-80
2022/01/17 07:53:21;;;;;;;33.77;19.17;;;4.10;99.90;;;;;;5028762;28;20214;-76
2022/01/17 07:55:48;;;;;;;35.60;19.47;;;4.10;99.90;;;;;;5024512;28;20190;-76
2022/01/17 07:58:13;;;;;;;34.17;17.97;;;4.20;99.90;;;;;;5022148;28;20264;-76
2022/01/17 08:00:39;;;;;;;33.67;18.13;;;4.20;99.90;;;;;;5022836;28;20202;-76
2022/01/17 08:03:06;;;;;;;35.10;19.40;;;4.10;99.90;;;;;;5043087;28;20281;-76
2022/01/17 08:05:33;;;;;;;33.33;18.97;;;4.10;99.90;;;;;;5010606;28;20546;-76
2022/01/17 08:08:00;;;;;;;34.37;18.40;;;4.10;99.90;;;;;;5029442;28;20252;-76
2022/01/17 08:10:26;;;;;;;35.77;19.57;;;4.20;99.90;;;;;;5029499;28;20666;-76
2022/01/17 08:12:52;;;;;;;36.70;19.10;;;4.20;99.90;;;;;;5028963;28;20221;-76
2022/01/17 08:15:18;;;;;;;34.80;19.03;;;4.20;99.90;;;;;;5027496;28;20202;-76
2022/01/17 08:17:48;;;;;;;36.30;19.50;;;4.20;99.90;;;;;;5030774;28;20190;-76
2022/01/17 08:20:14;;;;;;;33.63;18.00;;;4.20;99.90;;;;;;5029596;28;20658;-76
2022/01/17 08:22:41;;;;;;;32.70;18.20;;;4.20;99.90;;;;;;5029286;28;20198;-76
2022/01/17 08:25:08;;;;;;;33.27;17.70;;;4.20;99.90;;;;;;5025477;28;20857;-76
2022/01/17 08:27:34;;;;;;;32.60;18.43;;;4.30;99.90;;;;;;5029339;28;20190;-76
2022/01/17 08:30:00;;;;;;;31.87;17.33;;;4.30;99.90;;;;;;5032030;28;20185;-76
2022/01/17 08:32:28;;;;;;;36.80;17.80;;;4.30;99.90;;;;;;5027486;28;20182;-76
2022/01/17 08:34:56;;;;;;;34.03;18.33;;;4.30;99.90;;;;;;5033016;28;20182;-76
2022/01/17 08:37:25;;;;;;;33.83;19.60;;;4.20;99.90;;;;;;5035289;28;20174;-77
2022/01/17 08:39:52;;;;;;;32.20;17.57;;;4.20;99.90;;;;;;5034670;28;20284;-80
2022/01/17 08:42:18;;;;;;;35.80;18.33;;;4.30;99.90;;;;;;5035160;28;20202;-77
2022/01/17 08:44:49;;;;;;;32.47;18.10;;;4.20;99.90;;;;;;5029561;28;20196;-77
2022/01/17 08:47:16;;;;;;;33.07;18.47;;;4.30;99.90;;;;;;5032128;28;20179;-77
2022/01/17 08:49:44;;;;;;;33.03;18.83;;;4.30;99.90;;;;;;5032657;28;20542;-77
2022/01/17 08:52:10;;;;;;;32.30;18.23;;;4.30;99.90;;;;;;5030846;28;20520;-77
2022/01/17 08:54:36;;;;;;;34.70;19.00;;;4.30;99.90;;;;;;5031760;28;20288;-77
2022/01/17 08:57:02;;;;;;;31.47;16.97;;;4.40;99.90;;;;;;5030781;28;20206;-77
2022/01/17 08:59:30;;;;;;;34.33;19.13;;;4.40;99.90;;;;;;5032527;28;20292;-78
2022/01/17 09:01:56;;;;;;;33.00;17.90;;;4.50;99.90;;;;;;5031996;28;20185;-77
2022/01/17 09:04:21;;;;;;;35.20;18.60;;;4.50;99.90;;;;;;5027874;28;20198;-77
2022/01/17 09:06:47;;;;;;;31.67;17.60;;;4.60;99.90;;;;;;5031587;28;20186;-77
2022/01/17 09:09:13;;;;;;;31.93;17.80;;;4.60;99.90;;;;;;5031040;28;20613;-77
2022/01/17 09:11:39;;;;;;;32.37;18.17;;;4.60;99.90;;;;;;5015084;28;20182;-77
2022/01/17 09:14:05;;;;;;;33.87;18.60;;;4.70;99.90;;;;;;5029520;28;20218;-77
2022/01/17 09:16:30;;;;;;;31.10;17.67;;;4.70;99.90;;;;;;5031258;28;20186;-77
2022/01/17 09:18:56;;;;;;;35.00;19.17;;;4.80;99.90;;;;;;5033337;28;20178;-77
2022/01/17 09:21:22;;;;;;;33.50;17.60;;;4.80;99.90;;;;;;5031404;28;20680;-77
2022/01/17 09:23:49;;;;;;;34.40;19.47;;;4.80;99.90;;;;;;5031661;28;20230;-77
2022/01/17 09:26:15;;;;;;;32.70;17.83;;;4.90;99.90;;;;;;5030176;28;20186;-77
2022/01/17 09:28:42;;;;;;;29.97;17.17;;;4.90;99.90;;;;;;5032864;28;20198;-77
2022/01/17 09:31:08;;;;;;;30.17;16.97;;;4.90;99.90;;;;;;5032211;28;20185;-77
2022/01/17 09:33:35;;;;;;;31.90;18.53;;;4.90;99.90;;;;;;5027050;28;20215;-77
2022/01/17 09:36:01;;;;;;;32.80;18.27;;;4.90;99.90;;;;;;5031130;28;20183;-78
2022/01/17 09:38:27;;;;;;;32.30;17.77;;;4.90;99.90;;;;;;5032033;28;20182;-77
2022/01/17 09:40:52;;;;;;;31.80;17.10;;;5.00;99.90;;;;;;5032228;28;20260;-77
2022/01/17 09:43:18;;;;;;;30.33;17.10;;;5.00;99.90;;;;;;5028711;28;20225;-77
2022/01/17 09:45:44;;;;;;;32.07;17.37;;;5.10;99.90;;;;;;5026553;28;20266;-75
2022/01/17 09:48:18;;;;;;;37.23;18.90;;;5.10;99.90;;;;;;5032091;28;20262;-75
2022/01/17 09:50:56;;;;;;;31.40;17.63;;;5.10;99.90;;;;;;5029340;28;20213;-75
2022/01/17 09:53:23;;;;;;;32.17;17.43;;;5.10;99.90;;;;;;5027255;28;20263;-75
2022/01/17 09:55:49;;;;;;;33.33;17.70;;;5.10;99.90;;;;;;5024980;28;20581;-75
2022/01/17 09:58:15;;;;;;;31.87;17.63;;;5.10;99.90;;;;;;5031055;28;20209;-75
2022/01/17 10:00:43;;;;;;;31.10;17.17;;;5.20;99.90;;;;;;5030742;28;20205;-75
2022/01/17 10:03:12;;;;;;;34.00;18.17;;;5.20;99.90;;;;;;5030964;28;20187;-75
2022/01/17 10:05:39;;;;;;;29.40;17.70;;;5.30;99.90;;;;;;5028510;28;20179;-75
2022/01/17 10:08:08;;;;;;;29.77;16.83;;;5.30;99.90;;;;;;5031941;28;20639;-75
2022/01/17 10:11:00;;;;;;;32.80;18.30;;;5.40;99.90;;;;;;5030979;28;20178;-75
2022/01/17 10:13:34;;;;;;;31.83;17.77;;;5.50;99.90;;;;;;5031746;28;20271;-75
2022/01/17 10:16:21;;;;;;;31.50;16.90;;;5.50;99.90;;;;;;5010732;28;20193;-75
2022/01/17 10:19:02;;;;;;;27.90;16.60;;;5.60;99.90;;;;;;5012463;28;20720;-76
2022/01/17 10:21:33;;;;;;;27.70;16.50;;;5.60;99.90;;;;;;5010657;28;20732;-75
2022/01/17 10:35:33;;;;;;;27.10;15.33;;;5.70;99.90;;;;;;4983991;28;20191;-78
2022/01/17 10:38:10;;;;;;;23.93;14.80;;;5.80;99.90;;;;;;5011928;28;20217;-78
2022/01/17 10:40:39;;;;;;;23.53;14.00;;;5.90;99.90;;;;;;5010673;28;20293;-77
2022/01/17 10:43:06;;;;;;;22.70;14.17;;;6.00;99.90;;;;;;5010811;28;20198;-77
2022/01/17 10:45:42;;;;;;;20.23;12.40;;;6.10;99.90;;;;;;5014045;28;20186;-76
2022/01/17 10:48:09;;;;;;;17.67;11.77;;;6.20;99.90;;;;;;5014212;28;20212;-76
2022/01/17 10:50:38;;;;;;;15.80;10.33;;;6.30;99.90;;;;;;5030319;28;20202;-76
2022/01/17 10:53:07;;;;;;;16.13;10.97;;;6.40;99.90;;;;;;5031319;28;20202;-76
2022/01/17 10:55:44;;;;;;;17.20;11.60;;;6.50;99.90;;;;;;5030024;28;20253;-77
2022/01/17 10:58:12;;;;;;;18.07;11.40;;;6.50;99.90;;;;;;5030288;28;20589;-77
2022/01/17 11:00:44;;;;;;;15.17;10.03;;;6.60;99.90;;;;;;5031332;28;20237;-76
2022/01/17 11:03:16;;;;;;;15.97;10.20;;;6.60;99.90;;;;;;5031773;28;20634;-76
2022/01/17 11:05:44;;;;;;;18.27;11.67;;;6.60;99.90;;;;;;5033999;28;20186;-76
2022/01/17 11:08:12;;;;;;;20.00;12.00;;;6.70;99.90;;;;;;5029529;28;20179;-76
2022/01/17 11:10:43;;;;;;;17.37;11.43;;;6.70;99.90;;;;;;5040333;28;20190;-76
2022/01/17 11:13:20;;;;;;;15.47;10.97;;;6.70;99.90;;;;;;5030787;28;20301;-76
2022/01/17 11:15:53;;;;;;;18.00;11.40;;;6.70;99.90;;;;;;5013675;28;20182;-76
2022/01/17 11:18:24;;;;;;;14.60;10.97;;;6.60;99.90;;;;;;5030635;28;20183;-76
2022/01/17 11:20:56;;;;;;;15.63;10.63;;;6.70;99.90;;;;;;5019820;28;20248;-77
2022/01/17 11:23:22;;;;;;;19.03;12.13;;;6.60;99.90;;;;;;5030889;28;20198;-76
2022/01/17 11:25:53;;;;;;;17.20;11.60;;;6.70;99.90;;;;;;5029516;28;20257;-75
2022/01/17 11:28:22;;;;;;;17.87;11.97;;;6.60;99.90;;;;;;5030354;28;20174;-75
2022/01/17 11:30:50;;;;;;;17.17;11.67;;;6.70;99.90;;;;;;5029818;28;20182;-75
2022/01/17 11:33:16;;;;;;;17.93;11.80;;;6.70;99.90;;;;;;5032452;28;20297;-75
2022/01/17 11:35:42;;;;;;;18.97;11.70;;;6.70;99.90;;;;;;5029123;28;20265;-76
2022/01/17 11:38:15;;;;;;;18.60;12.93;;;6.70;99.90;;;;;;5021406;28;20525;-76
2022/01/17 11:40:43;;;;;;;23.13;14.47;;;6.80;99.90;;;;;;5033470;28;20201;-76
2022/01/17 11:43:32;;;;;;;25.30;14.40;;;6.70;99.90;;;;;;5034308;28;20199;-75
2022/01/17 11:46:17;;;;;;;22.40;13.70;;;6.70;99.90;;;;;;5016577;28;20184;-76
2022/01/17 11:48:56;;;;;;;22.07;13.37;;;6.60;99.90;;;;;;5034824;28;20186;-76
2022/01/17 11:51:22;;;;;;;22.03;13.47;;;6.70;99.90;;;;;;5038086;28;20178;-76
2022/01/17 11:53:53;;;;;;;22.03;13.67;;;6.70;99.90;;;;;;5036169;28;20641;-75
2022/01/17 11:56:38;;;;;;;21.60;13.40;;;6.70;99.90;;;;;;5037450;28;20214;-77
2022/01/17 11:59:28;;;;;;;20.80;13.30;;;6.80;99.90;;;;;;5016411;28;20560;-76
2022/01/17 12:02:10;;;;;;;26.37;14.60;;;6.80;99.90;;;;;;5028337;28;20183;-73
2022/01/17 12:04:36;;;;;;;21.37;13.73;;;6.80;99.90;;;;;;5029953;28;20290;-75
2022/01/17 12:07:02;;;;;;;19.40;13.00;;;6.80;99.90;;;;;;5033852;28;20171;-74
2022/01/17 12:09:29;;;;;;;20.30;13.47;;;6.90;99.90;;;;;;5032599;28;20210;-73
2022/01/17 12:12:07;;;;;;;23.17;14.23;;;7.10;99.90;;;;;;5029933;28;20832;-76
2022/01/17 12:14:40;;;;;;;20.50;13.10;;;7.20;99.90;;;;;;5020617;28;20221;-74
2022/01/17 12:17:26;;;;;;;20.63;13.40;;;7.30;99.90;;;;;;5027263;28;20221;-75
2022/01/17 12:20:04;;;;;;;24.00;13.87;;;7.30;99.90;;;;;;5044290;28;20321;-74
2022/01/17 12:22:31;;;;;;;22.03;13.33;;;7.40;99.90;;;;;;5021066;28;20182;-74
2022/01/17 12:24:57;;;;;;;20.60;13.63;;;7.40;99.90;;;;;;5021709;28;20189;-76
2022/01/17 12:27:27;;;;;;;21.33;13.57;;;7.40;99.90;;;;;;5024070;28;20179;-73
2022/01/17 12:29:54;;;;;;;20.90;13.77;;;7.40;99.90;;;;;;5018100;28;20190;-73
2022/01/17 12:32:23;;;;;;;21.20;13.37;;;7.30;99.90;;;;;;5028951;28;20202;-73
2022/01/17 12:34:56;;;;;;;20.53;13.57;;;7.30;99.90;;;;;;4994888;28;20222;-73
2022/01/17 12:37:39;;;;;;;18.07;11.50;;;7.10;99.90;;;;;;5028394;28;20190;-73
2022/01/17 12:40:13;;;;;;;19.80;12.53;;;7.10;99.90;;;;;;5025460;28;20297;-73
2022/01/17 12:43:06;;;;;;;19.43;12.87;;;7.00;99.90;;;;;;5029660;28;20567;-73
2022/01/17 12:45:42;;;;;;;19.73;12.57;;;7.10;99.90;;;;;;5027692;28;20179;-77
2022/01/17 12:48:18;;;;;;;21.53;13.50;;;7.10;99.90;;;;;;5030175;28;20222;-74
2022/01/17 12:50:47;;;;;;;20.37;13.60;;;7.20;99.90;;;;;;5031494;28;20209;-74
2022/01/17 12:53:16;;;;;;;22.30;13.63;;;7.20;99.90;;;;;;5027328;28;20210;-74
2022/01/17 12:55:45;;;;;;;20.20;13.33;;;7.20;99.90;;;;;;5028460;28;20190;-74
2022/01/17 12:58:20;;;;;;;21.70;13.70;;;7.20;99.90;;;;;;5029950;28;20650;-74
2022/01/17 13:00:51;;;;;;;23.50;13.53;;;7.10;99.90;;;;;;5025856;28;20225;-74
2022/01/17 13:03:19;;;;;;;22.23;13.53;;;7.00;99.90;;;;;;5030125;28;20206;-74
2022/01/17 13:05:45;;;;;;;22.40;13.47;;;6.90;99.90;;;;;;5027520;28;20186;-76
2022/01/17 13:08:12;;;;;;;21.37;13.90;;;6.80;99.90;;;;;;5032106;28;20190;-77
2022/01/17 13:10:39;;;;;;;20.87;12.90;;;6.70;99.90;;;;;;5024487;28;20190;-76
2022/01/17 13:13:05;;;;;;;19.53;12.60;;;6.60;99.90;;;;;;5028363;28;20201;-78